LICR/REG METAR and TAF weather

Enter ICAO airport designator
Station Type Date Time Source
LICR METAR 2021/09/20 05:20 UTC NOAA

LICR 200520Z AUTO 02008KT 9999 NCD 26/18 Q1015


Station Type Date Time Source
LICR Decoded METAR 2021/09/20 05:20 UTC NOAA

Reggio Calabria, Italy (LICR) 38-04N 015-39E 21M
Sep 20, 2021 - 01:20 AM EDT / 2021.09.20 0520 UTC
Wind: from the NNE (020 degrees) at 9 MPH (8 KT):0
Visibility: greater than 7 mile(s):0
Temperature: 78 F (26 C)
Dew Point: 64 F (18 C)
Relative Humidity: 61%
Pressure (altimeter): 29.97 in. Hg (1015 hPa)
ob: LICR 200520Z AUTO 02008KT 9999 NCD 26/18 Q1015
cycle: 5

Station Type Date Time Source
LICR TAF 2021/09/20 06:25 UTC NOAA

TAF LICR 200500Z 2006/2106 35012KT 9999 SCT030

Example: see airport list